sensor_id;sensor_type;location;lat;lon;timestamp;P1;durP1;ratioP1;P2;durP2;ratioP2
30543;SDS011;43388;46.308;4.600;2023-07-02T00:02:05;37.00;;;27.35;;
30543;SDS011;43388;46.308;4.600;2023-07-02T00:04:31;36.75;;;27.67;;
30543;SDS011;43388;46.308;4.600;2023-07-02T00:06:57;41.08;;;29.90;;
30543;SDS011;43388;46.308;4.600;2023-07-02T00:09:23;41.83;;;29.05;;
30543;SDS011;43388;46.308;4.600;2023-07-02T00:11:49;43.45;;;30.10;;
30543;SDS011;43388;46.308;4.600;2023-07-02T00:14:15;38.75;;;28.70;;
30543;SDS011;43388;46.308;4.600;2023-07-02T00:16:45;41.10;;;29.13;;
30543;SDS011;43388;46.308;4.600;2023-07-02T00:19:13;35.85;;;29.20;;
30543;SDS011;43388;46.308;4.600;2023-07-02T00:21:39;43.28;;;29.98;;
30543;SDS011;43388;46.308;4.600;2023-07-02T00:24:06;36.55;;;29.88;;
30543;SDS011;43388;46.308;4.600;2023-07-02T00:26:34;40.10;;;30.30;;
30543;SDS011;43388;46.308;4.600;2023-07-02T00:29:00;37.35;;;29.85;;
30543;SDS011;43388;46.308;4.600;2023-07-02T00:31:28;37.45;;;29.35;;
30543;SDS011;43388;46.308;4.600;2023-07-02T00:33:54;35.45;;;28.73;;
30543;SDS011;43388;46.308;4.600;2023-07-02T00:36:20;38.28;;;27.55;;
30543;SDS011;43388;46.308;4.600;2023-07-02T00:38:48;34.75;;;27.35;;
30543;SDS011;43388;46.308;4.600;2023-07-02T00:41:14;30.83;;;27.52;;
30543;SDS011;43388;46.308;4.600;2023-07-02T00:43:40;31.88;;;26.13;;
30543;SDS011;43388;46.308;4.600;2023-07-02T00:46:13;33.75;;;27.23;;
30543;SDS011;43388;46.308;4.600;2023-07-02T00:51:11;33.22;;;27.80;;
30543;SDS011;43388;46.308;4.600;2023-07-02T00:53:37;29.02;;;25.92;;
30543;SDS011;43388;46.308;4.600;2023-07-02T00:56:04;34.80;;;27.02;;
30543;SDS011;43388;46.308;4.600;2023-07-02T00:58:30;33.55;;;26.75;;
30543;SDS011;43388;46.308;4.600;2023-07-02T01:00:56;35.80;;;28.17;;
30543;SDS011;43388;46.308;4.600;2023-07-02T01:03:22;36.58;;;29.92;;
30543;SDS011;43388;46.308;4.600;2023-07-02T01:05:48;36.33;;;29.85;;
30543;SDS011;43388;46.308;4.600;2023-07-02T01:08:14;40.05;;;31.30;;
30543;SDS011;43388;46.308;4.600;2023-07-02T01:10:40;35.17;;;30.55;;
30543;SDS011;43388;46.308;4.600;2023-07-02T01:13:12;41.80;;;32.05;;
30543;SDS011;43388;46.308;4.600;2023-07-02T01:15:40;46.03;;;33.05;;
30543;SDS011;43388;46.308;4.600;2023-07-02T01:18:06;42.00;;;32.88;;
30543;SDS011;43388;46.308;4.600;2023-07-02T01:20:33;42.35;;;33.78;;
30543;SDS011;43388;46.308;4.600;2023-07-02T01:22:59;45.33;;;34.03;;
30543;SDS011;43388;46.308;4.600;2023-07-02T01:25:28;47.78;;;34.83;;
30543;SDS011;43388;46.308;4.600;2023-07-02T01:27:54;44.50;;;35.75;;
30543;SDS011;43388;46.308;4.600;2023-07-02T01:30:21;43.65;;;34.50;;
30543;SDS011;43388;46.308;4.600;2023-07-02T01:32:47;41.17;;;34.30;;
30543;SDS011;43388;46.308;4.600;2023-07-02T01:35:13;46.85;;;34.53;;
30543;SDS011;43388;46.308;4.600;2023-07-02T01:37:41;44.22;;;34.25;;
30543;SDS011;43388;46.308;4.600;2023-07-02T01:40:07;49.35;;;35.35;;
30543;SDS011;43388;46.308;4.600;2023-07-02T01:42:34;49.15;;;35.53;;
30543;SDS011;43388;46.308;4.600;2023-07-02T01:45:00;46.88;;;35.20;;
30543;SDS011;43388;46.308;4.600;2023-07-02T01:47:26;43.85;;;34.20;;
30543;SDS011;43388;46.308;4.600;2023-07-02T01:49:52;44.25;;;36.17;;
30543;SDS011;43388;46.308;4.600;2023-07-02T01:52:18;51.22;;;35.17;;
30543;SDS011;43388;46.308;4.600;2023-07-02T01:54:44;47.50;;;35.08;;
30543;SDS011;43388;46.308;4.600;2023-07-02T01:57:11;40.97;;;34.03;;
30543;SDS011;43388;46.308;4.600;2023-07-02T01:59:37;38.53;;;32.08;;
30543;SDS011;43388;46.308;4.600;2023-07-02T02:02:03;40.55;;;31.25;;
30543;SDS011;43388;46.308;4.600;2023-07-02T02:04:29;45.28;;;32.75;;
30543;SDS011;43388;46.308;4.600;2023-07-02T02:06:55;40.80;;;33.22;;
30543;SDS011;43388;46.308;4.600;2023-07-02T02:09:21;37.22;;;31.63;;
30543;SDS011;43388;46.308;4.600;2023-07-02T02:11:48;42.67;;;32.50;;
30543;SDS011;43388;46.308;4.600;2023-07-02T02:14:15;43.90;;;34.60;;
30543;SDS011;43388;46.308;4.600;2023-07-02T02:16:41;38.45;;;32.70;;
30543;SDS011;43388;46.308;4.600;2023-07-02T02:19:10;38.80;;;31.50;;
30543;SDS011;43388;46.308;4.600;2023-07-02T02:21:36;39.97;;;32.13;;
30543;SDS011;43388;46.308;4.600;2023-07-02T02:24:02;41.22;;;32.42;;
30543;SDS011;43388;46.308;4.600;2023-07-02T02:26:29;37.75;;;31.00;;
30543;SDS011;43388;46.308;4.600;2023-07-02T02:28:55;38.08;;;30.95;;
30543;SDS011;43388;46.308;4.600;2023-07-02T02:31:21;42.28;;;32.63;;
30543;SDS011;43388;46.308;4.600;2023-07-02T02:33:47;42.55;;;33.28;;
30543;SDS011;43388;46.308;4.600;2023-07-02T02:36:13;40.90;;;32.67;;
30543;SDS011;43388;46.308;4.600;2023-07-02T02:38:39;36.22;;;30.55;;
30543;SDS011;43388;46.308;4.600;2023-07-02T02:41:05;35.45;;;29.77;;
30543;SDS011;43388;46.308;4.600;2023-07-02T02:43:33;37.07;;;30.20;;
30543;SDS011;43388;46.308;4.600;2023-07-02T02:45:59;37.35;;;29.20;;
30543;SDS011;43388;46.308;4.600;2023-07-02T02:48:25;33.58;;;28.20;;
30543;SDS011;43388;46.308;4.600;2023-07-02T02:50:51;31.38;;;27.00;;
30543;SDS011;43388;46.308;4.600;2023-07-02T02:53:17;29.10;;;25.95;;
30543;SDS011;43388;46.308;4.600;2023-07-02T02:55:43;31.20;;;25.73;;
30543;SDS011;43388;46.308;4.600;2023-07-02T02:58:09;28.60;;;25.20;;
30543;SDS011;43388;46.308;4.600;2023-07-02T03:00:35;30.58;;;22.77;;
30543;SDS011;43388;46.308;4.600;2023-07-02T03:03:03;27.15;;;22.88;;
30543;SDS011;43388;46.308;4.600;2023-07-02T03:05:29;26.63;;;22.05;;
30543;SDS011;43388;46.308;4.600;2023-07-02T03:07:55;25.25;;;20.75;;
30543;SDS011;43388;46.308;4.600;2023-07-02T03:10:21;22.00;;;19.63;;
30543;SDS011;43388;46.308;4.600;2023-07-02T03:12:47;23.45;;;19.33;;
30543;SDS011;43388;46.308;4.600;2023-07-02T03:15:13;20.77;;;18.52;;
30543;SDS011;43388;46.308;4.600;2023-07-02T03:17:39;21.85;;;18.98;;
30543;SDS011;43388;46.308;4.600;2023-07-02T03:20:06;18.10;;;16.15;;
30543;SDS011;43388;46.308;4.600;2023-07-02T03:22:35;15.70;;;14.18;;
30543;SDS011;43388;46.308;4.600;2023-07-02T03:25:01;14.73;;;13.35;;
30543;SDS011;43388;46.308;4.600;2023-07-02T03:27:27;14.00;;;12.57;;
30543;SDS011;43388;46.308;4.600;2023-07-02T03:29:53;14.05;;;11.68;;
30543;SDS011;43388;46.308;4.600;2023-07-02T03:32:19;14.52;;;13.13;;
30543;SDS011;43388;46.308;4.600;2023-07-02T03:34:45;12.43;;;11.20;;
30543;SDS011;43388;46.308;4.600;2023-07-02T03:37:11;12.52;;;11.32;;
30543;SDS011;43388;46.308;4.600;2023-07-02T03:39:37;12.35;;;11.15;;
30543;SDS011;43388;46.308;4.600;2023-07-02T03:42:05;10.88;;;9.85;;
30543;SDS011;43388;46.308;4.600;2023-07-02T03:44:31;14.40;;;11.65;;
30543;SDS011;43388;46.308;4.600;2023-07-02T03:46:57;12.90;;;11.60;;
30543;SDS011;43388;46.308;4.600;2023-07-02T03:49:23;16.70;;;12.45;;
30543;SDS011;43388;46.308;4.600;2023-07-02T03:51:49;15.55;;;13.13;;
30543;SDS011;43388;46.308;4.600;2023-07-02T03:54:15;14.55;;;12.75;;
30543;SDS011;43388;46.308;4.600;2023-07-02T03:56:42;16.38;;;13.73;;
30543;SDS011;43388;46.308;4.600;2023-07-02T03:59:08;17.70;;;14.40;;
30543;SDS011;43388;46.308;4.600;2023-07-02T04:01:34;17.40;;;13.25;;
30543;SDS011;43388;46.308;4.600;2023-07-02T04:04:00;17.23;;;15.10;;
30543;SDS011;43388;46.308;4.600;2023-07-02T04:06:27;16.45;;;13.65;;
30543;SDS011;43388;46.308;4.600;2023-07-02T04:08:53;16.92;;;14.43;;
30543;SDS011;43388;46.308;4.600;2023-07-02T04:11:19;16.40;;;14.25;;
30543;SDS011;43388;46.308;4.600;2023-07-02T04:13:45;18.13;;;14.98;;
30543;SDS011;43388;46.308;4.600;2023-07-02T04:16:11;14.65;;;13.00;;
30543;SDS011;43388;46.308;4.600;2023-07-02T04:18:37;17.50;;;15.27;;
30543;SDS011;43388;46.308;4.600;2023-07-02T04:21:03;17.08;;;14.45;;
30543;SDS011;43388;46.308;4.600;2023-07-02T04:23:29;16.67;;;14.07;;
30543;SDS011;43388;46.308;4.600;2023-07-02T04:25:55;16.55;;;14.70;;
30543;SDS011;43388;46.308;4.600;2023-07-02T04:28:21;14.73;;;12.95;;
30543;SDS011;43388;46.308;4.600;2023-07-02T04:30:47;15.80;;;13.75;;
30543;SDS011;43388;46.308;4.600;2023-07-02T04:33:15;13.73;;;12.25;;
30543;SDS011;43388;46.308;4.600;2023-07-02T04:35:41;12.52;;;11.27;;
30543;SDS011;43388;46.308;4.600;2023-07-02T04:38:08;13.07;;;11.77;;
30543;SDS011;43388;46.308;4.600;2023-07-02T04:40:34;11.80;;;10.57;;
30543;SDS011;43388;46.308;4.600;2023-07-02T04:43:00;9.77;;;8.98;;
30543;SDS011;43388;46.308;4.600;2023-07-02T04:45:27;11.80;;;10.60;;
30543;SDS011;43388;46.308;4.600;2023-07-02T04:47:57;10.52;;;9.43;;
30543;SDS011;43388;46.308;4.600;2023-07-02T04:50:25;9.45;;;8.55;;
30543;SDS011;43388;46.308;4.600;2023-07-02T04:52:51;9.65;;;8.73;;
30543;SDS011;43388;46.308;4.600;2023-07-02T04:55:17;11.25;;;9.00;;
30543;SDS011;43388;46.308;4.600;2023-07-02T04:57:43;8.80;;;8.00;;
30543;SDS011;43388;46.308;4.600;2023-07-02T05:00:10;9.13;;;8.30;;
30543;SDS011;43388;46.308;4.600;2023-07-02T05:02:37;8.85;;;8.10;;
30543;SDS011;43388;46.308;4.600;2023-07-02T05:05:03;11.48;;;10.32;;
30543;SDS011;43388;46.308;4.600;2023-07-02T05:07:29;11.40;;;10.23;;
30543;SDS011;43388;46.308;4.600;2023-07-02T05:09:55;12.52;;;10.88;;
30543;SDS011;43388;46.308;4.600;2023-07-02T05:12:21;13.38;;;12.00;;
30543;SDS011;43388;46.308;4.600;2023-07-02T05:14:47;14.82;;;13.48;;
30543;SDS011;43388;46.308;4.600;2023-07-02T05:17:13;17.50;;;15.25;;
30543;SDS011;43388;46.308;4.600;2023-07-02T05:19:39;19.40;;;15.40;;
30543;SDS011;43388;46.308;4.600;2023-07-02T05:22:06;17.92;;;14.68;;
30543;SDS011;43388;46.308;4.600;2023-07-02T05:24:32;19.30;;;16.88;;
30543;SDS011;43388;46.308;4.600;2023-07-02T05:26:58;22.20;;;17.83;;
30543;SDS011;43388;46.308;4.600;2023-07-02T05:29:24;24.88;;;19.27;;
30543;SDS011;43388;46.308;4.600;2023-07-02T05:31:50;23.30;;;18.70;;
30543;SDS011;43388;46.308;4.600;2023-07-02T05:34:16;26.48;;;20.00;;
30543;SDS011;43388;46.308;4.600;2023-07-02T05:36:42;24.58;;;20.35;;
30543;SDS011;43388;46.308;4.600;2023-07-02T05:39:08;26.38;;;21.00;;
30543;SDS011;43388;46.308;4.600;2023-07-02T05:41:34;30.30;;;21.45;;
30543;SDS011;43388;46.308;4.600;2023-07-02T05:44:00;33.65;;;22.13;;
30543;SDS011;43388;46.308;4.600;2023-07-02T05:46:26;32.00;;;22.90;;
30543;SDS011;43388;46.308;4.600;2023-07-02T05:48:52;30.55;;;22.63;;
30543;SDS011;43388;46.308;4.600;2023-07-02T05:51:21;36.10;;;24.70;;
30543;SDS011;43388;46.308;4.600;2023-07-02T05:53:47;33.00;;;25.20;;
30543;SDS011;43388;46.308;4.600;2023-07-02T05:56:13;37.47;;;24.35;;
30543;SDS011;43388;46.308;4.600;2023-07-02T05:58:39;38.10;;;25.45;;
30543;SDS011;43388;46.308;4.600;2023-07-02T06:01:06;38.47;;;26.05;;
30543;SDS011;43388;46.308;4.600;2023-07-02T06:03:32;33.65;;;26.75;;
30543;SDS011;43388;46.308;4.600;2023-07-02T06:05:58;37.95;;;27.33;;
30543;SDS011;43388;46.308;4.600;2023-07-02T06:08:24;35.53;;;26.48;;
30543;SDS011;43388;46.308;4.600;2023-07-02T06:10:50;35.00;;;28.48;;
30543;SDS011;43388;46.308;4.600;2023-07-02T06:13:16;42.15;;;30.55;;
30543;SDS011;43388;46.308;4.600;2023-07-02T06:15:42;40.08;;;31.73;;
30543;SDS011;43388;46.308;4.600;2023-07-02T06:18:09;40.13;;;31.17;;
30543;SDS011;43388;46.308;4.600;2023-07-02T06:20:35;43.25;;;30.17;;
30543;SDS011;43388;46.308;4.600;2023-07-02T06:23:01;44.05;;;31.35;;
30543;SDS011;43388;46.308;4.600;2023-07-02T06:25:27;41.25;;;30.83;;
30543;SDS011;43388;46.308;4.600;2023-07-02T06:27:53;40.63;;;32.10;;
30543;SDS011;43388;46.308;4.600;2023-07-02T06:30:23;39.00;;;30.13;;
30543;SDS011;43388;46.308;4.600;2023-07-02T06:32:49;39.47;;;28.70;;
30543;SDS011;43388;46.308;4.600;2023-07-02T06:35:15;39.67;;;29.13;;
30543;SDS011;43388;46.308;4.600;2023-07-02T06:37:41;34.88;;;26.70;;
30543;SDS011;43388;46.308;4.600;2023-07-02T06:40:07;35.15;;;27.17;;
30543;SDS011;43388;46.308;4.600;2023-07-02T06:42:33;30.33;;;25.08;;
30543;SDS011;43388;46.308;4.600;2023-07-02T06:45:01;31.33;;;23.90;;
30543;SDS011;43388;46.308;4.600;2023-07-02T06:47:27;29.95;;;23.65;;
30543;SDS011;43388;46.308;4.600;2023-07-02T06:49:53;32.05;;;24.30;;
30543;SDS011;43388;46.308;4.600;2023-07-02T06:52:19;28.17;;;23.55;;
30543;SDS011;43388;46.308;4.600;2023-07-02T06:54:45;34.70;;;24.45;;
30543;SDS011;43388;46.308;4.600;2023-07-02T06:57:12;33.63;;;24.80;;
30543;SDS011;43388;46.308;4.600;2023-07-02T06:59:38;28.75;;;23.33;;
30543;SDS011;43388;46.308;4.600;2023-07-02T07:02:04;26.25;;;23.38;;
30543;SDS011;43388;46.308;4.600;2023-07-02T07:04:30;30.38;;;24.75;;
30543;SDS011;43388;46.308;4.600;2023-07-02T07:06:56;26.33;;;23.45;;
30543;SDS011;43388;46.308;4.600;2023-07-02T07:09:22;29.27;;;24.27;;
30543;SDS011;43388;46.308;4.600;2023-07-02T07:11:48;28.10;;;22.85;;
30543;SDS011;43388;46.308;4.600;2023-07-02T07:14:14;30.23;;;23.27;;
30543;SDS011;43388;46.308;4.600;2023-07-02T07:16:40;32.58;;;23.80;;
30543;SDS011;43388;46.308;4.600;2023-07-02T07:19:06;28.98;;;23.48;;
30543;SDS011;43388;46.308;4.600;2023-07-02T07:21:33;27.63;;;21.55;;
30543;SDS011;43388;46.308;4.600;2023-07-02T07:23:59;28.30;;;22.92;;
30543;SDS011;43388;46.308;4.600;2023-07-02T07:26:25;28.85;;;23.33;;
30543;SDS011;43388;46.308;4.600;2023-07-02T07:28:51;28.00;;;22.38;;
30543;SDS011;43388;46.308;4.600;2023-07-02T07:31:19;27.38;;;22.15;;
30543;SDS011;43388;46.308;4.600;2023-07-02T07:33:45;30.17;;;23.10;;
30543;SDS011;43388;46.308;4.600;2023-07-02T07:36:11;29.20;;;22.85;;
30543;SDS011;43388;46.308;4.600;2023-07-02T07:38:37;31.35;;;25.50;;
30543;SDS011;43388;46.308;4.600;2023-07-02T07:41:03;31.80;;;25.05;;
30543;SDS011;43388;46.308;4.600;2023-07-02T07:43:29;31.90;;;26.00;;
30543;SDS011;43388;46.308;4.600;2023-07-02T07:45:55;33.53;;;26.58;;
30543;SDS011;43388;46.308;4.600;2023-07-02T07:48:21;33.80;;;27.10;;
30543;SDS011;43388;46.308;4.600;2023-07-02T07:50:47;39.33;;;27.23;;
30543;SDS011;43388;46.308;4.600;2023-07-02T07:53:14;36.55;;;28.20;;
30543;SDS011;43388;46.308;4.600;2023-07-02T07:55:40;38.40;;;28.25;;
30543;SDS011;43388;46.308;4.600;2023-07-02T07:58:06;41.05;;;27.33;;
30543;SDS011;43388;46.308;4.600;2023-07-02T08:00:32;35.38;;;27.05;;
30543;SDS011;43388;46.308;4.600;2023-07-02T08:02:58;37.95;;;27.30;;
30543;SDS011;43388;46.308;4.600;2023-07-02T08:05:25;42.22;;;29.35;;
30543;SDS011;43388;46.308;4.600;2023-07-02T08:07:51;38.78;;;27.45;;
30543;SDS011;43388;46.308;4.600;2023-07-02T08:10:18;39.53;;;29.80;;
30543;SDS011;43388;46.308;4.600;2023-07-02T08:12:45;34.95;;;28.55;;
30543;SDS011;43388;46.308;4.600;2023-07-02T08:15:12;41.10;;;28.10;;
30543;SDS011;43388;46.308;4.600;2023-07-02T08:17:38;38.08;;;30.40;;
30543;SDS011;43388;46.308;4.600;2023-07-02T08:20:04;39.85;;;29.02;;
30543;SDS011;43388;46.308;4.600;2023-07-02T08:22:35;43.03;;;30.05;;
30543;SDS011;43388;46.308;4.600;2023-07-02T08:25:01;39.35;;;29.27;;
30543;SDS011;43388;46.308;4.600;2023-07-02T08:27:27;35.35;;;29.50;;
30543;SDS011;43388;46.308;4.600;2023-07-02T08:29:53;38.42;;;28.85;;
30543;SDS011;43388;46.308;4.600;2023-07-02T08:32:19;44.00;;;30.23;;
30543;SDS011;43388;46.308;4.600;2023-07-02T08:34:45;43.25;;;29.00;;
30543;SDS011;43388;46.308;4.600;2023-07-02T08:37:11;36.38;;;28.35;;
30543;SDS011;43388;46.308;4.600;2023-07-02T08:39:38;40.03;;;28.27;;
30543;SDS011;43388;46.308;4.600;2023-07-02T08:42:04;38.22;;;29.02;;
30543;SDS011;43388;46.308;4.600;2023-07-02T08:44:30;37.33;;;27.45;;
30543;SDS011;43388;46.308;4.600;2023-07-02T08:46:57;38.33;;;27.65;;
30543;SDS011;43388;46.308;4.600;2023-07-02T08:49:23;37.35;;;26.92;;
30543;SDS011;43388;46.308;4.600;2023-07-02T08:51:50;40.42;;;27.40;;
30543;SDS011;43388;46.308;4.600;2023-07-02T08:54:19;37.22;;;27.50;;
30543;SDS011;43388;46.308;4.600;2023-07-02T08:56:45;40.53;;;28.60;;
30543;SDS011;43388;46.308;4.600;2023-07-02T08:59:12;35.13;;;26.33;;
30543;SDS011;43388;46.308;4.600;2023-07-02T09:01:44;35.10;;;26.75;;
30543;SDS011;43388;46.308;4.600;2023-07-02T09:04:24;35.92;;;26.65;;
30543;SDS011;43388;46.308;4.600;2023-07-02T09:09:31;41.05;;;27.23;;
30543;SDS011;43388;46.308;4.600;2023-07-02T09:11:57;32.65;;;25.98;;
30543;SDS011;43388;46.308;4.600;2023-07-02T09:14:23;35.17;;;24.80;;
30543;SDS011;43388;46.308;4.600;2023-07-02T09:17:00;35.28;;;25.70;;
30543;SDS011;43388;46.308;4.600;2023-07-02T09:19:26;31.92;;;24.45;;
30543;SDS011;43388;46.308;4.600;2023-07-02T09:21:52;31.25;;;24.63;;
30543;SDS011;43388;46.308;4.600;2023-07-02T09:24:23;36.05;;;23.92;;
30543;SDS011;43388;46.308;4.600;2023-07-02T09:26:50;30.55;;;23.90;;
30543;SDS011;43388;46.308;4.600;2023-07-02T09:29:18;34.20;;;24.02;;
30543;SDS011;43388;46.308;4.600;2023-07-02T09:31:47;32.30;;;22.95;;
30543;SDS011;43388;46.308;4.600;2023-07-02T09:34:13;28.50;;;21.27;;
30543;SDS011;43388;46.308;4.600;2023-07-02T09:36:40;34.22;;;22.10;;
30543;SDS011;43388;46.308;4.600;2023-07-02T09:39:11;30.27;;;22.50;;
30543;SDS011;43388;46.308;4.600;2023-07-02T09:41:39;28.45;;;21.23;;
30543;SDS011;43388;46.308;4.600;2023-07-02T09:44:06;30.90;;;20.88;;
30543;SDS011;43388;46.308;4.600;2023-07-02T09:46:32;28.08;;;18.73;;
30543;SDS011;43388;46.308;4.600;2023-07-02T09:48:59;28.30;;;19.88;;
30543;SDS011;43388;46.308;4.600;2023-07-02T09:51:25;23.30;;;19.52;;
30543;SDS011;43388;46.308;4.600;2023-07-02T09:53:51;27.88;;;19.10;;
30543;SDS011;43388;46.308;4.600;2023-07-02T09:56:17;29.85;;;21.80;;
30543;SDS011;43388;46.308;4.600;2023-07-02T09:58:46;29.35;;;22.08;;
30543;SDS011;43388;46.308;4.600;2023-07-02T10:01:12;29.25;;;23.48;;
30543;SDS011;43388;46.308;4.600;2023-07-02T10:03:38;33.88;;;23.90;;
30543;SDS011;43388;46.308;4.600;2023-07-02T10:06:04;35.58;;;25.27;;
30543;SDS011;43388;46.308;4.600;2023-07-02T10:08:30;33.58;;;25.58;;
30543;SDS011;43388;46.308;4.600;2023-07-02T10:11:07;36.95;;;24.50;;
30543;SDS011;43388;46.308;4.600;2023-07-02T10:13:34;37.80;;;25.30;;
30543;SDS011;43388;46.308;4.600;2023-07-02T10:16:00;34.85;;;25.02;;
30543;SDS011;43388;46.308;4.600;2023-07-02T10:18:26;31.23;;;22.58;;
30543;SDS011;43388;46.308;4.600;2023-07-02T10:20:52;32.60;;;22.58;;
30543;SDS011;43388;46.308;4.600;2023-07-02T10:23:18;29.25;;;21.33;;
30543;SDS011;43388;46.308;4.600;2023-07-02T10:25:45;29.02;;;21.70;;
30543;SDS011;43388;46.308;4.600;2023-07-02T10:28:14;33.72;;;22.60;;
30543;SDS011;43388;46.308;4.600;2023-07-02T10:30:41;26.58;;;20.85;;
30543;SDS011;43388;46.308;4.600;2023-07-02T10:33:11;30.45;;;21.95;;
30543;SDS011;43388;46.308;4.600;2023-07-02T10:35:38;31.05;;;21.27;;
30543;SDS011;43388;46.308;4.600;2023-07-02T10:38:06;30.08;;;21.33;;
30543;SDS011;43388;46.308;4.600;2023-07-02T10:40:32;24.48;;;18.27;;
30543;SDS011;43388;46.308;4.600;2023-07-02T10:42:58;25.05;;;17.63;;
30543;SDS011;43388;46.308;4.600;2023-07-02T10:45:31;27.25;;;17.85;;
30543;SDS011;43388;46.308;4.600;2023-07-02T10:47:58;28.27;;;19.50;;
30543;SDS011;43388;46.308;4.600;2023-07-02T10:50:24;27.75;;;19.92;;
30543;SDS011;43388;46.308;4.600;2023-07-02T10:52:50;27.98;;;19.33;;
30543;SDS011;43388;46.308;4.600;2023-07-02T10:55:17;28.88;;;20.05;;
30543;SDS011;43388;46.308;4.600;2023-07-02T10:57:43;27.17;;;19.88;;
30543;SDS011;43388;46.308;4.600;2023-07-02T11:00:10;26.52;;;20.60;;
30543;SDS011;43388;46.308;4.600;2023-07-02T11:02:39;29.45;;;20.88;;
30543;SDS011;43388;46.308;4.600;2023-07-02T11:05:06;30.02;;;21.30;;
30543;SDS011;43388;46.308;4.600;2023-07-02T11:07:37;31.95;;;20.75;;
30543;SDS011;43388;46.308;4.600;2023-07-02T11:10:03;27.27;;;20.10;;
30543;SDS011;43388;46.308;4.600;2023-07-02T11:12:32;32.38;;;22.00;;
30543;SDS011;43388;46.308;4.600;2023-07-02T11:15:10;29.60;;;21.33;;
30543;SDS011;43388;46.308;4.600;2023-07-02T11:17:36;32.63;;;20.88;;
30543;SDS011;43388;46.308;4.600;2023-07-02T11:20:04;28.92;;;20.83;;
30543;SDS011;43388;46.308;4.600;2023-07-02T11:22:31;28.15;;;20.52;;
30543;SDS011;43388;46.308;4.600;2023-07-02T11:25:07;31.02;;;20.85;;
30543;SDS011;43388;46.308;4.600;2023-07-02T11:27:33;31.02;;;21.95;;
30543;SDS011;43388;46.308;4.600;2023-07-02T11:29:59;29.80;;;19.52;;
30543;SDS011;43388;46.308;4.600;2023-07-02T11:32:25;24.83;;;19.05;;
30543;SDS011;43388;46.308;4.600;2023-07-02T11:34:54;23.90;;;19.50;;
30543;SDS011;43388;46.308;4.600;2023-07-02T11:37:21;24.48;;;18.77;;
30543;SDS011;43388;46.308;4.600;2023-07-02T11:39:48;24.92;;;18.50;;
30543;SDS011;43388;46.308;4.600;2023-07-02T11:42:14;24.50;;;18.20;;
30543;SDS011;43388;46.308;4.600;2023-07-02T11:44:40;24.70;;;17.65;;
30543;SDS011;43388;46.308;4.600;2023-07-02T11:47:06;22.40;;;16.48;;
30543;SDS011;43388;46.308;4.600;2023-07-02T11:49:32;22.95;;;17.58;;
30543;SDS011;43388;46.308;4.600;2023-07-02T11:51:58;23.83;;;17.88;;
30543;SDS011;43388;46.308;4.600;2023-07-02T11:54:24;22.75;;;17.20;;
30543;SDS011;43388;46.308;4.600;2023-07-02T11:56:50;24.25;;;17.42;;
30543;SDS011;43388;46.308;4.600;2023-07-02T11:59:16;23.10;;;18.33;;
30543;SDS011;43388;46.308;4.600;2023-07-02T12:01:43;26.05;;;18.02;;
30543;SDS011;43388;46.308;4.600;2023-07-02T12:04:09;27.05;;;18.05;;
30543;SDS011;43388;46.308;4.600;2023-07-02T12:06:37;23.80;;;17.65;;
30543;SDS011;43388;46.308;4.600;2023-07-02T12:09:03;24.75;;;19.30;;
30543;SDS011;43388;46.308;4.600;2023-07-02T12:11:29;27.40;;;18.63;;
30543;SDS011;43388;46.308;4.600;2023-07-02T12:13:55;25.70;;;18.90;;
30543;SDS011;43388;46.308;4.600;2023-07-02T12:16:21;27.48;;;19.95;;
30543;SDS011;43388;46.308;4.600;2023-07-02T12:18:47;24.00;;;18.90;;
30543;SDS011;43388;46.308;4.600;2023-07-02T12:21:13;27.48;;;19.40;;
30543;SDS011;43388;46.308;4.600;2023-07-02T12:23:39;24.35;;;18.80;;
30543;SDS011;43388;46.308;4.600;2023-07-02T12:26:05;29.60;;;19.45;;
30543;SDS011;43388;46.308;4.600;2023-07-02T12:28:31;25.45;;;19.60;;
30543;SDS011;43388;46.308;4.600;2023-07-02T12:30:57;30.23;;;17.85;;
30543;SDS011;43388;46.308;4.600;2023-07-02T12:33:23;28.40;;;19.38;;
30543;SDS011;43388;46.308;4.600;2023-07-02T12:35:49;25.02;;;18.42;;
30543;SDS011;43388;46.308;4.600;2023-07-02T12:38:15;25.02;;;18.42;;
30543;SDS011;43388;46.308;4.600;2023-07-02T12:40:41;31.33;;;18.98;;
30543;SDS011;43388;46.308;4.600;2023-07-02T12:43:07;25.77;;;17.42;;
30543;SDS011;43388;46.308;4.600;2023-07-02T12:45:33;22.77;;;17.23;;
30543;SDS011;43388;46.308;4.600;2023-07-02T12:47:59;22.70;;;16.77;;
30543;SDS011;43388;46.308;4.600;2023-07-02T12:50:25;25.83;;;18.38;;
30543;SDS011;43388;46.308;4.600;2023-07-02T12:52:51;24.13;;;17.13;;
30543;SDS011;43388;46.308;4.600;2023-07-02T12:55:17;23.70;;;16.83;;
30543;SDS011;43388;46.308;4.600;2023-07-02T12:57:43;21.42;;;16.83;;
30543;SDS011;43388;46.308;4.600;2023-07-02T13:00:09;21.52;;;16.15;;
30543;SDS011;43388;46.308;4.600;2023-07-02T13:02:35;22.70;;;16.58;;
30543;SDS011;43388;46.308;4.600;2023-07-02T13:05:01;22.23;;;17.15;;
30543;SDS011;43388;46.308;4.600;2023-07-02T13:07:27;26.13;;;17.25;;
30543;SDS011;43388;46.308;4.600;2023-07-02T13:09:55;22.20;;;15.52;;
30543;SDS011;43388;46.308;4.600;2023-07-02T13:12:21;20.10;;;16.70;;
30543;SDS011;43388;46.308;4.600;2023-07-02T13:14:47;22.40;;;17.67;;
30543;SDS011;43388;46.308;4.600;2023-07-02T13:17:13;22.10;;;16.20;;
30543;SDS011;43388;46.308;4.600;2023-07-02T13:19:39;20.20;;;15.98;;
30543;SDS011;43388;46.308;4.600;2023-07-02T13:22:05;19.75;;;15.93;;
30543;SDS011;43388;46.308;4.600;2023-07-02T13:24:34;18.92;;;14.43;;
30543;SDS011;43388;46.308;4.600;2023-07-02T13:27:02;16.52;;;14.55;;
30543;SDS011;43388;46.308;4.600;2023-07-02T13:29:28;18.65;;;14.90;;
30543;SDS011;43388;46.308;4.600;2023-07-02T13:31:54;18.10;;;14.48;;
30543;SDS011;43388;46.308;4.600;2023-07-02T13:34:20;15.75;;;12.65;;
30543;SDS011;43388;46.308;4.600;2023-07-02T13:36:46;17.20;;;13.07;;
30543;SDS011;43388;46.308;4.600;2023-07-02T13:39:12;15.05;;;12.35;;
30543;SDS011;43388;46.308;4.600;2023-07-02T13:41:38;19.85;;;14.32;;
30543;SDS011;43388;46.308;4.600;2023-07-02T13:44:04;17.42;;;14.13;;
30543;SDS011;43388;46.308;4.600;2023-07-02T13:46:30;18.95;;;14.38;;
30543;SDS011;43388;46.308;4.600;2023-07-02T13:48:56;17.52;;;14.40;;
30543;SDS011;43388;46.308;4.600;2023-07-02T13:51:22;19.10;;;13.82;;
30543;SDS011;43388;46.308;4.600;2023-07-02T13:53:48;17.30;;;13.63;;
30543;SDS011;43388;46.308;4.600;2023-07-02T13:56:14;17.33;;;14.10;;
30543;SDS011;43388;46.308;4.600;2023-07-02T14:01:22;21.95;;;14.75;;
30543;SDS011;43388;46.308;4.600;2023-07-02T14:03:48;18.52;;;13.77;;
30543;SDS011;43388;46.308;4.600;2023-07-02T14:06:14;20.90;;;15.23;;
30543;SDS011;43388;46.308;4.600;2023-07-02T14:08:40;18.88;;;14.63;;
30543;SDS011;43388;46.308;4.600;2023-07-02T14:11:07;16.33;;;14.00;;
30543;SDS011;43388;46.308;4.600;2023-07-02T14:13:33;16.83;;;13.10;;
30543;SDS011;43388;46.308;4.600;2023-07-02T14:15:59;18.52;;;12.52;;
30543;SDS011;43388;46.308;4.600;2023-07-02T14:18:25;16.42;;;13.07;;
30543;SDS011;43388;46.308;4.600;2023-07-02T14:20:51;20.70;;;14.00;;
30543;SDS011;43388;46.308;4.600;2023-07-02T14:23:17;17.50;;;13.30;;
30543;SDS011;43388;46.308;4.600;2023-07-02T14:25:43;20.35;;;12.73;;